Time;durP1;ratioP1;P1;durP2;ratioP2;P2;SDS_P1;SDS_P2;PMS_P1;PMS_P2;Temp;Humidity;BMP_temperature;BMP_pressure;BME280_temperature;BME280_humidity;BME280_pressure;Samples;Min_cycle;Max_cycle;Signal;HPM_P1;HPM_P2
2022/02/28 00:01:28;;;;;;;5.28;2.70;;;;;;;;;;5073773;28;20103;-39
2022/02/28 00:03:55;;;;;;;4.88;2.67;;;;;;;;;;5073792;28;20528;-39
2022/02/28 00:06:21;;;;;;;6.55;3.45;;;;;;;;;;5073999;28;20107;-39
2022/02/28 00:08:47;;;;;;;6.22;3.10;;;;;;;;;;5073663;28;20181;-39
2022/02/28 00:11:12;;;;;;;7.40;3.10;;;;;;;;;;5073489;28;20040;-39
2022/02/28 00:13:38;;;;;;;3.83;2.55;;;;;;;;;;5073479;28;20048;-39
2022/02/28 00:16:04;;;;;;;8.18;4.28;;;;;;;;;;5073826;28;20039;-39
2022/02/28 00:18:29;;;;;;;6.57;3.13;;;;;;;;;;5073672;28;20371;-39
2022/02/28 00:20:54;;;;;;;4.65;3.05;;;;;;;;;;5073419;28;20488;-39
2022/02/28 00:23:20;;;;;;;6.25;2.83;;;;;;;;;;5073366;28;20033;-40
2022/02/28 00:25:45;;;;;;;8.23;3.92;;;;;;;;;;5073156;28;20032;-39
2022/02/28 00:28:11;;;;;;;7.22;2.88;;;;;;;;;;5073310;28;20033;-39
2022/02/28 00:30:37;;;;;;;7.60;3.70;;;;;;;;;;5073161;28;20120;-39
2022/02/28 00:33:03;;;;;;;6.75;2.75;;;;;;;;;;5071790;28;20049;-39
2022/02/28 00:35:29;;;;;;;3.88;2.80;;;;;;;;;;5073097;28;20036;-39
2022/02/28 00:37:55;;;;;;;4.75;2.95;;;;;;;;;;5073038;28;20024;-39
2022/02/28 00:40:20;;;;;;;4.05;2.53;;;;;;;;;;5071856;28;20031;-39
2022/02/28 00:42:47;;;;;;;3.42;3.10;;;;;;;;;;5072986;28;20090;-39
2022/02/28 00:45:12;;;;;;;6.47;3.35;;;;;;;;;;5072939;28;20012;-39
2022/02/28 00:47:38;;;;;;;6.80;3.08;;;;;;;;;;5071612;28;20032;-39
2022/02/28 00:50:04;;;;;;;7.38;3.10;;;;;;;;;;5073173;28;20059;-39
2022/02/28 00:52:32;;;;;;;3.95;2.75;;;;;;;;;;5072683;28;20124;-39
2022/02/28 00:54:58;;;;;;;4.60;2.80;;;;;;;;;;5072803;28;20087;-39
2022/02/28 00:57:23;;;;;;;6.93;3.47;;;;;;;;;;5072907;28;20052;-39
2022/02/28 00:59:48;;;;;;;5.63;2.95;;;;;;;;;;5071231;28;20028;-39
2022/02/28 01:02:14;;;;;;;5.72;3.42;;;;;;;;;;5072959;28;20032;-39
2022/02/28 01:04:39;;;;;;;5.65;3.17;;;;;;;;;;5072505;28;20442;-39
2022/02/28 01:07:05;;;;;;;10.32;3.20;;;;;;;;;;5071179;28;20041;-39
2022/02/28 01:09:31;;;;;;;5.57;2.78;;;;;;;;;;5072308;28;20029;-39
2022/02/28 01:11:56;;;;;;;5.63;2.80;;;;;;;;;;5071197;28;20169;-43
2022/02/28 01:14:22;;;;;;;7.55;3.08;;;;;;;;;;5071117;28;20021;-40
2022/02/28 01:16:50;;;;;;;11.13;3.15;;;;;;;;;;5072179;28;20155;-39
2022/02/28 01:19:15;;;;;;;6.07;3.50;;;;;;;;;;5071027;28;20115;-39
2022/02/28 01:21:40;;;;;;;7.88;4.53;;;;;;;;;;5072113;28;20100;-40
2022/02/28 01:24:06;;;;;;;5.95;2.80;;;;;;;;;;5072460;28;20028;-39
2022/02/28 01:26:31;;;;;;;4.93;3.10;;;;;;;;;;5070781;28;20498;-39
2022/02/28 01:28:57;;;;;;;6.45;3.38;;;;;;;;;;5071977;28;20016;-39
2022/02/28 01:31:23;;;;;;;6.68;3.47;;;;;;;;;;5070610;28;20032;-39
2022/02/28 01:33:48;;;;;;;9.75;3.75;;;;;;;;;;5072038;28;20475;-39
2022/02/28 01:36:13;;;;;;;6.95;2.90;;;;;;;;;;5070067;28;20076;-39
2022/02/28 01:38:39;;;;;;;6.70;2.88;;;;;;;;;;5071816;28;20115;-39
2022/02/28 01:41:05;;;;;;;5.55;3.42;;;;;;;;;;5071861;28;20111;-39
2022/02/28 01:43:30;;;;;;;3.92;2.63;;;;;;;;;;5071736;28;20024;-39
2022/02/28 01:45:56;;;;;;;4.10;2.42;;;;;;;;;;5071778;28;20029;-39
2022/02/28 01:48:21;;;;;;;5.60;3.72;;;;;;;;;;5071734;28;20023;-39
2022/02/28 01:50:47;;;;;;;6.13;3.58;;;;;;;;;;5070222;28;20080;-39
2022/02/28 01:53:12;;;;;;;6.00;3.17;;;;;;;;;;5070353;28;20483;-39
2022/02/28 01:55:38;;;;;;;5.72;2.70;;;;;;;;;;5071652;28;20032;-39
2022/02/28 01:58:03;;;;;;;6.22;3.13;;;;;;;;;;5070271;28;20085;-39
2022/02/28 02:00:31;;;;;;;5.70;3.20;;;;;;;;;;5070246;28;20495;-39
2022/02/28 02:02:56;;;;;;;5.40;2.90;;;;;;;;;;5071572;28;20017;-39
2022/02/28 02:05:22;;;;;;;10.48;3.70;;;;;;;;;;5071532;28;20906;-39
2022/02/28 02:07:48;;;;;;;8.43;3.00;;;;;;;;;;5070114;28;20020;-39
2022/02/28 02:10:14;;;;;;;7.38;2.92;;;;;;;;;;5070178;28;20093;-39
2022/02/28 02:12:40;;;;;;;6.03;2.80;;;;;;;;;;5071350;28;20481;-39
2022/02/28 02:15:07;;;;;;;5.03;2.85;;;;;;;;;;5071486;28;20123;-39
2022/02/28 02:17:34;;;;;;;6.53;3.15;;;;;;;;;;5069990;28;20463;-39
2022/02/28 02:20:24;;;;;;;5.18;2.63;;;;;;;;;;5070135;28;20032;-39
2022/02/28 02:23:00;;;;;;;5.53;2.78;;;;;;;;;;5059756;28;20400;-39
2022/02/28 02:25:26;;;;;;;7.90;3.58;;;;;;;;;;5070212;28;20029;-39
2022/02/28 02:27:52;;;;;;;6.13;2.88;;;;;;;;;;5069882;28;20051;-39
2022/02/28 02:30:18;;;;;;;4.75;2.65;;;;;;;;;;5071226;28;20233;-39
2022/02/28 02:32:44;;;;;;;2.97;2.65;;;;;;;;;;5069720;28;20561;-39
2022/02/28 02:35:11;;;;;;;4.05;2.90;;;;;;;;;;5071247;28;20024;-39
2022/02/28 02:37:36;;;;;;;7.25;3.55;;;;;;;;;;5069746;28;20082;-39
2022/02/28 02:40:03;;;;;;;10.23;2.83;;;;;;;;;;5069792;28;20028;-39
2022/02/28 02:42:28;;;;;;;5.95;3.15;;;;;;;;;;5071123;28;20040;-39
2022/02/28 02:44:54;;;;;;;5.43;3.42;;;;;;;;;;5069840;28;20064;-39
2022/02/28 02:47:19;;;;;;;6.50;3.50;;;;;;;;;;5070516;28;20047;-39
2022/02/28 02:50:10;;;;;;;5.35;2.33;;;;;;;;;;5072038;28;20376;-39
2022/02/28 02:52:36;;;;;;;5.18;3.35;;;;;;;;;;5073726;28;20021;-39
2022/02/28 02:55:03;;;;;;;3.90;2.50;;;;;;;;;;5073798;28;20028;-39
2022/02/28 02:57:30;;;;;;;5.18;2.85;;;;;;;;;;5073664;28;20033;-39
2022/02/28 02:59:55;;;;;;;5.53;2.97;;;;;;;;;;5073666;28;20556;-39
2022/02/28 03:02:21;;;;;;;8.50;3.20;;;;;;;;;;5073607;28;20033;-39
2022/02/28 03:04:47;;;;;;;5.35;3.05;;;;;;;;;;5073620;28;20020;-39
2022/02/28 03:07:17;;;;;;;9.05;4.22;;;;;;;;;;5073504;28;20020;-39
2022/02/28 03:09:44;;;;;;;6.10;3.25;;;;;;;;;;5073605;28;20670;-39
2022/02/28 03:12:10;;;;;;;4.20;2.78;;;;;;;;;;5073547;28;20115;-39
2022/02/28 03:14:36;;;;;;;9.70;3.35;;;;;;;;;;5073232;28;20479;-39
2022/02/28 03:17:02;;;;;;;8.60;3.50;;;;;;;;;;5073208;28;20032;-39
2022/02/28 03:19:28;;;;;;;6.25;2.72;;;;;;;;;;5073372;28;20056;-39
2022/02/28 03:21:53;;;;;;;7.30;4.05;;;;;;;;;;5073117;28;20029;-39
2022/02/28 03:24:19;;;;;;;7.15;4.28;;;;;;;;;;5073238;28;20463;-39
2022/02/28 03:26:46;;;;;;;6.18;3.05;;;;;;;;;;5073015;28;20372;-39
2022/02/28 03:29:13;;;;;;;7.03;3.15;;;;;;;;;;5073027;28;20101;-39
2022/02/28 03:31:38;;;;;;;6.55;3.10;;;;;;;;;;5074285;28;20080;-39
2022/02/28 03:34:04;;;;;;;7.13;3.92;;;;;;;;;;5073048;28;20036;-39
2022/02/28 03:36:30;;;;;;;5.53;3.40;;;;;;;;;;5072837;28;20043;-39
2022/02/28 03:39:03;;;;;;;7.45;3.33;;;;;;;;;;5072921;28;20027;-39
2022/02/28 03:41:29;;;;;;;3.40;2.20;;;;;;;;;;5072881;28;20498;-39
2022/02/28 03:43:54;;;;;;;7.63;3.20;;;;;;;;;;5074069;28;20067;-39
2022/02/28 03:46:28;;;;;;;6.00;2.50;;;;;;;;;;5074402;28;20119;-39
2022/02/28 03:49:12;;;;;;;3.60;2.78;;;;;;;;;;5074291;28;20048;-39
2022/02/28 03:52:10;;;;;;;6.22;3.28;;;;;;;;;;5058012;28;20076;-39
2022/02/28 03:54:53;;;;;;;5.55;2.70;;;;;;;;;;5074186;28;20078;-39
2022/02/28 03:57:19;;;;;;;7.55;3.15;;;;;;;;;;5072493;28;20079;-39
2022/02/28 03:59:46;;;;;;;13.40;3.28;;;;;;;;;;5072045;28;20104;-39
2022/02/28 04:02:12;;;;;;;7.95;2.78;;;;;;;;;;5072561;28;20111;-39
2022/02/28 04:04:43;;;;;;;6.22;3.47;;;;;;;;;;5072449;28;20021;-39
2022/02/28 04:07:09;;;;;;;6.70;2.95;;;;;;;;;;5072503;28;20518;-39
2022/02/28 04:09:36;;;;;;;5.20;3.08;;;;;;;;;;5072221;28;20077;-39
2022/02/28 04:12:04;;;;;;;12.35;4.07;;;;;;;;;;5072313;28;20490;-39
2022/02/28 04:14:30;;;;;;;10.75;3.75;;;;;;;;;;5072287;28;20218;-39
2022/02/28 04:16:56;;;;;;;6.65;3.28;;;;;;;;;;5072236;28;20115;-39
2022/02/28 04:19:53;;;;;;;12.05;3.63;;;;;;;;;;5050197;28;20021;-39
2022/02/28 04:22:22;;;;;;;5.00;3.45;;;;;;;;;;5072180;28;20044;-39
2022/02/28 04:24:49;;;;;;;7.65;4.18;;;;;;;;;;5073294;28;20025;-39
2022/02/28 04:27:15;;;;;;;10.48;3.35;;;;;;;;;;5072046;28;20473;-39
2022/02/28 04:29:41;;;;;;;9.27;3.55;;;;;;;;;;5071935;28;20063;-39
2022/02/28 04:32:17;;;;;;;5.57;3.53;;;;;;;;;;5071316;28;20041;-39
2022/02/28 04:34:52;;;;;;;3.53;3.08;;;;;;;;;;5070816;28;20050;-39
2022/02/28 04:37:19;;;;;;;6.82;3.47;;;;;;;;;;5070884;28;20483;-39
2022/02/28 04:39:44;;;;;;;4.68;2.58;;;;;;;;;;5070700;28;20024;-39
2022/02/28 04:42:10;;;;;;;7.15;3.22;;;;;;;;;;5070749;28;20031;-39
2022/02/28 04:44:36;;;;;;;8.38;3.70;;;;;;;;;;5071986;28;20036;-39
2022/02/28 04:47:02;;;;;;;8.60;3.38;;;;;;;;;;5054235;28;20052;-39
2022/02/28 04:50:05;;;;;;;4.38;2.85;;;;;;;;;;4990286;28;20038;-39
2022/02/28 04:52:32;;;;;;;7.88;3.65;;;;;;;;;;4990101;28;20042;-39
2022/02/28 04:54:59;;;;;;;5.72;3.83;;;;;;;;;;5012529;28;20463;-39
2022/02/28 04:57:25;;;;;;;7.18;2.95;;;;;;;;;;5070476;28;20029;-39
2022/02/28 04:59:50;;;;;;;5.95;3.00;;;;;;;;;;5070433;28;20096;-39
2022/02/28 05:02:17;;;;;;;6.63;3.35;;;;;;;;;;5070452;28;20032;-39
2022/02/28 05:04:54;;;;;;;9.95;3.95;;;;;;;;;;5070422;28;20675;-39
2022/02/28 05:07:19;;;;;;;9.38;3.53;;;;;;;;;;5070402;28;20131;-39
2022/02/28 05:09:45;;;;;;;4.32;2.83;;;;;;;;;;5070909;28;20028;-39
2022/02/28 05:12:11;;;;;;;3.70;2.28;;;;;;;;;;5070484;28;20028;-39
2022/02/28 05:14:36;;;;;;;6.25;3.85;;;;;;;;;;5070169;28;20497;-39
2022/02/28 05:17:04;;;;;;;5.40;3.22;;;;;;;;;;5070194;28;20028;-39
2022/02/28 05:19:31;;;;;;;5.00;3.33;;;;;;;;;;5070208;28;20036;-39
2022/02/28 05:21:57;;;;;;;5.60;3.10;;;;;;;;;;5070137;28;20032;-39
2022/02/28 05:24:24;;;;;;;4.25;2.30;;;;;;;;;;5070058;28;20016;-39
2022/02/28 05:26:50;;;;;;;10.45;2.60;;;;;;;;;;5069950;28;20032;-38
2022/02/28 05:29:16;;;;;;;10.73;3.22;;;;;;;;;;5071275;28;20013;-39
2022/02/28 05:31:42;;;;;;;3.70;2.47;;;;;;;;;;5024696;28;1291017;-39
2022/02/28 05:34:36;;;;;;;6.72;3.28;;;;;;;;;;5071886;28;20029;-39
2022/02/28 05:37:05;;;;;;;6.05;3.50;;;;;;;;;;5070625;28;20020;-39
2022/02/28 05:39:48;;;;;;;6.90;3.30;;;;;;;;;;5070655;28;20027;-39
2022/02/28 05:42:18;;;;;;;6.60;2.83;;;;;;;;;;5070590;28;20036;-39
2022/02/28 05:44:46;;;;;;;8.60;3.42;;;;;;;;;;5070499;28;20431;-39
2022/02/28 05:47:12;;;;;;;6.10;3.17;;;;;;;;;;5070471;28;20166;-39
2022/02/28 05:49:42;;;;;;;4.40;3.08;;;;;;;;;;5070312;28;20479;-39
2022/02/28 05:52:07;;;;;;;8.90;3.45;;;;;;;;;;5071938;28;20028;-39
2022/02/28 05:54:33;;;;;;;5.13;2.85;;;;;;;;;;5071580;28;20517;-39
2022/02/28 05:56:59;;;;;;;10.55;4.32;;;;;;;;;;5071987;28;20036;-39
2022/02/28 05:59:24;;;;;;;5.45;3.22;;;;;;;;;;5071629;28;20032;-39
2022/02/28 06:01:49;;;;;;;6.97;4.10;;;;;;;;;;5070264;28;20032;-39
2022/02/28 06:04:15;;;;;;;8.07;3.78;;;;;;;;;;5071687;28;20020;-39
2022/02/28 06:06:40;;;;;;;4.00;3.05;;;;;;;;;;5071682;28;20066;-39
2022/02/28 06:09:06;;;;;;;5.82;3.65;;;;;;;;;;5071504;28;20657;-39
2022/02/28 06:11:32;;;;;;;7.45;4.78;;;;;;;;;;5071273;28;20151;-40
2022/02/28 06:13:58;;;;;;;5.38;3.47;;;;;;;;;;5071304;28;20066;-39
2022/02/28 06:16:23;;;;;;;6.45;3.67;;;;;;;;;;5071661;28;20487;-39
2022/02/28 06:18:48;;;;;;;6.30;3.90;;;;;;;;;;5071324;28;20098;-39
2022/02/28 06:21:14;;;;;;;5.35;2.85;;;;;;;;;;5069978;28;20032;-39
2022/02/28 06:23:39;;;;;;;4.13;2.92;;;;;;;;;;5071441;28;20023;-39
2022/02/28 06:26:05;;;;;;;8.70;3.33;;;;;;;;;;5071344;28;20380;-39
2022/02/28 06:28:32;;;;;;;7.15;2.60;;;;;;;;;;5071639;28;20040;-39
2022/02/28 06:31:01;;;;;;;7.72;3.10;;;;;;;;;;5071098;28;20041;-39
2022/02/28 06:33:26;;;;;;;5.65;2.97;;;;;;;;;;5071081;28;20094;-39
2022/02/28 06:35:52;;;;;;;7.10;3.35;;;;;;;;;;5071436;28;20055;-39
2022/02/28 06:38:18;;;;;;;4.82;3.28;;;;;;;;;;5071200;28;20028;-39
2022/02/28 06:40:46;;;;;;;3.67;3.20;;;;;;;;;;5071027;28;20036;-39
2022/02/28 06:43:15;;;;;;;5.50;2.95;;;;;;;;;;5069855;28;20020;-39
2022/02/28 06:45:41;;;;;;;5.85;3.08;;;;;;;;;;5071301;28;20036;-39
2022/02/28 06:48:06;;;;;;;6.22;3.80;;;;;;;;;;5071070;28;20463;-39
2022/02/28 06:50:32;;;;;;;10.75;3.20;;;;;;;;;;5071022;28;20051;-39
2022/02/28 06:52:57;;;;;;;4.40;2.67;;;;;;;;;;5071115;28;20024;-39
2022/02/28 06:55:23;;;;;;;8.23;3.22;;;;;;;;;;5071225;28;20207;-39
2022/02/28 06:57:49;;;;;;;6.18;3.38;;;;;;;;;;5070906;28;20047;-39
2022/02/28 07:00:15;;;;;;;5.57;2.80;;;;;;;;;;5070935;28;20036;-39
2022/02/28 07:03:02;;;;;;;9.52;2.88;;;;;;;;;;5069720;28;20017;-39
2022/02/28 07:05:28;;;;;;;6.88;3.63;;;;;;;;;;5071210;28;20039;-39
2022/02/28 07:07:53;;;;;;;6.45;3.28;;;;;;;;;;5070785;28;20413;-39
2022/02/28 07:10:20;;;;;;;10.50;5.75;;;;;;;;;;5070692;28;20040;-39
2022/02/28 07:12:45;;;;;;;7.10;3.38;;;;;;;;;;5070770;28;20021;-39
2022/02/28 07:15:11;;;;;;;5.43;3.75;;;;;;;;;;5070884;28;20028;-39
2022/02/28 07:17:36;;;;;;;7.35;3.53;;;;;;;;;;5070876;28;20063;-39
2022/02/28 07:20:02;;;;;;;9.27;4.07;;;;;;;;;;5071107;28;20044;-39
2022/02/28 07:22:27;;;;;;;8.90;3.25;;;;;;;;;;5071044;28;20425;-40
2022/02/28 07:24:53;;;;;;;6.93;4.07;;;;;;;;;;5070564;28;20566;-40
2022/02/28 07:27:18;;;;;;;7.28;3.40;;;;;;;;;;5070997;28;20044;-39
2022/02/28 07:29:44;;;;;;;10.10;4.30;;;;;;;;;;5070858;28;20055;-39
2022/02/28 07:32:09;;;;;;;11.10;3.97;;;;;;;;;;5070338;28;20056;-40
2022/02/28 07:34:38;;;;;;;6.55;3.45;;;;;;;;;;5073503;28;20032;-39
2022/02/28 07:37:04;;;;;;;7.97;3.40;;;;;;;;;;5074142;28;20052;-39
2022/02/28 07:39:31;;;;;;;7.78;3.72;;;;;;;;;;5074250;28;20232;-39
2022/02/28 07:42:00;;;;;;;4.75;3.33;;;;;;;;;;5074149;28;20510;-39
2022/02/28 07:44:25;;;;;;;8.80;3.70;;;;;;;;;;5074086;28;20032;-39
2022/02/28 07:46:52;;;;;;;8.57;3.35;;;;;;;;;;5074263;28;20023;-39
2022/02/28 07:49:17;;;;;;;6.90;3.75;;;;;;;;;;5074293;28;20387;-39
2022/02/28 07:51:43;;;;;;;6.13;3.55;;;;;;;;;;5073938;28;20062;-39
2022/02/28 07:54:10;;;;;;;6.30;2.95;;;;;;;;;;5074060;28;20056;-39
2022/02/28 07:56:35;;;;;;;5.47;3.13;;;;;;;;;;5074131;28;20036;-43
2022/02/28 07:59:01;;;;;;;6.82;3.55;;;;;;;;;;5074265;28;20385;-39
2022/02/28 08:01:27;;;;;;;7.85;3.45;;;;;;;;;;5073795;28;20023;-39
2022/02/28 08:03:52;;;;;;;7.32;3.08;;;;;;;;;;5073728;28;20033;-39
2022/02/28 08:06:17;;;;;;;8.18;3.17;;;;;;;;;;5073769;28;20036;-39
2022/02/28 08:08:43;;;;;;;6.82;3.33;;;;;;;;;;5073891;28;20068;-39
2022/02/28 08:11:08;;;;;;;9.93;3.97;;;;;;;;;;5073952;28;20032;-39
2022/02/28 08:13:34;;;;;;;6.85;3.28;;;;;;;;;;5073464;28;20405;-39
2022/02/28 08:16:01;;;;;;;4.35;3.35;;;;;;;;;;5073606;28;20103;-39
2022/02/28 08:18:26;;;;;;;7.85;3.78;;;;;;;;;;5073530;28;20020;-39
2022/02/28 08:20:52;;;;;;;7.65;3.28;;;;;;;;;;5073332;28;20032;-39
2022/02/28 08:23:17;;;;;;;7.38;4.25;;;;;;;;;;5073760;28;20029;-39
2022/02/28 08:25:44;;;;;;;6.47;4.18;;;;;;;;;;5073531;28;20032;-39
2022/02/28 08:28:10;;;;;;;6.80;3.50;;;;;;;;;;5073712;28;20378;-39
2022/02/28 08:30:36;;;;;;;3.88;2.22;;;;;;;;;;5073425;28;20081;-40
2022/02/28 08:33:01;;;;;;;6.55;3.40;;;;;;;;;;5073164;28;20442;-39
2022/02/28 08:35:27;;;;;;;7.72;3.50;;;;;;;;;;5073161;28;20029;-39
2022/02/28 08:37:53;;;;;;;6.40;3.50;;;;;;;;;;5073386;28;20028;-39
2022/02/28 08:40:18;;;;;;;8.93;3.28;;;;;;;;;;5073426;28;20017;-39
2022/02/28 08:42:44;;;;;;;5.43;3.28;;;;;;;;;;5073033;28;20021;-39
2022/02/28 08:45:09;;;;;;;6.20;3.55;;;;;;;;;;5071821;28;20028;-39
2022/02/28 08:47:35;;;;;;;13.00;4.63;;;;;;;;;;5073095;28;20021;-39
2022/02/28 08:50:01;;;;;;;5.15;3.40;;;;;;;;;;5072810;28;20036;-39
2022/02/28 08:52:27;;;;;;;11.52;3.88;;;;;;;;;;5072796;28;20024;-39
2022/02/28 08:54:53;;;;;;;7.80;3.97;;;;;;;;;;5072816;28;20576;-39
2022/02/28 08:57:20;;;;;;;9.90;3.20;;;;;;;;;;5072613;28;20477;-39
2022/02/28 08:59:46;;;;;;;6.47;3.72;;;;;;;;;;5072650;28;20356;-39
2022/02/28 09:02:12;;;;;;;9.07;4.40;;;;;;;;;;5072725;28;20059;-39
2022/02/28 09:04:37;;;;;;;9.40;4.40;;;;;;;;;;5072568;28;20051;-39
2022/02/28 09:07:03;;;;;;;7.65;3.42;;;;;;;;;;5072577;28;20032;-39
2022/02/28 09:09:28;;;;;;;7.60;3.60;;;;;;;;;;5072482;28;20021;-39
2022/02/28 09:11:54;;;;;;;5.07;2.65;;;;;;;;;;5072689;28;20037;-39
2022/02/28 09:14:20;;;;;;;6.82;3.10;;;;;;;;;;5072800;28;20451;-39
2022/02/28 09:16:45;;;;;;;7.55;4.45;;;;;;;;;;5072528;28;20459;-40
2022/02/28 09:19:11;;;;;;;12.90;3.85;;;;;;;;;;5072605;28;20463;-39
2022/02/28 09:21:36;;;;;;;7.07;4.38;;;;;;;;;;5072470;28;20727;-39
2022/02/28 09:24:02;;;;;;;8.98;4.53;;;;;;;;;;5072255;28;20033;-39
2022/02/28 09:26:28;;;;;;;7.45;3.63;;;;;;;;;;5072421;28;20111;-39
2022/02/28 09:28:53;;;;;;;9.15;3.55;;;;;;;;;;5072047;28;20300;-39
2022/02/28 09:31:19;;;;;;;7.22;3.70;;;;;;;;;;5072082;28;20044;-39
2022/02/28 09:33:45;;;;;;;5.50;2.83;;;;;;;;;;5072269;28;20036;-39
2022/02/28 09:36:10;;;;;;;7.47;3.83;;;;;;;;;;5072188;28;20040;-39
2022/02/28 09:38:35;;;;;;;9.07;3.55;;;;;;;;;;5071898;28;20473;-40
2022/02/28 09:41:02;;;;;;;7.25;3.72;;;;;;;;;;5070592;28;20036;-39
2022/02/28 09:43:37;;;;;;;6.15;3.28;;;;;;;;;;5071907;28;20012;-39
2022/02/28 09:46:34;;;;;;;10.00;2.95;;;;;;;;;;5057246;28;20435;-39
2022/02/28 09:49:18;;;;;;;6.82;3.15;;;;;;;;;;5072032;28;20071;-39
2022/02/28 09:52:10;;;;;;;6.75;3.70;;;;;;;;;;5048131;28;20047;-39
2022/02/28 09:54:59;;;;;;;7.18;3.45;;;;;;;;;;5071583;28;20055;-39
2022/02/28 09:57:51;;;;;;;10.27;3.67;;;;;;;;;;5068182;28;20028;-39
2022/02/28 10:00:28;;;;;;;7.47;3.00;;;;;;;;;;5070380;28;20555;-39
2022/02/28 10:02:56;;;;;;;8.45;3.63;;;;;;;;;;5070089;28;20033;-39
2022/02/28 10:05:26;;;;;;;7.22;3.20;;;;;;;;;;5070272;28;20370;-39
2022/02/28 10:07:53;;;;;;;4.75;2.63;;;;;;;;;;5071421;28;20395;-39
2022/02/28 10:10:19;;;;;;;10.00;3.75;;;;;;;;;;5071549;28;20063;-39
2022/02/28 10:12:46;;;;;;;4.18;2.60;;;;;;;;;;5071340;28;20491;-39
2022/02/28 10:15:19;;;;;;;10.43;3.70;;;;;;;;;;5071449;28;20100;-39
2022/02/28 10:17:45;;;;;;;3.33;1.75;;;;;;;;;;5071235;28;20056;-39
2022/02/28 10:20:17;;;;;;;4.32;2.88;;;;;;;;;;5071490;28;20040;-39
2022/02/28 10:22:43;;;;;;;7.03;3.10;;;;;;;;;;5071151;28;20028;-40
2022/02/28 10:25:09;;;;;;;6.45;3.22;;;;;;;;;;5071428;28;20020;-39
2022/02/28 10:28:26;;;;;;;6.20;3.80;;;;;;;;;;5069924;28;20047;-39
2022/02/28 10:31:24;;;;;;;10.00;4.50;;;;;;;;;;5066607;28;20052;-39
2022/02/28 10:34:23;;;;;;;5.00;3.35;;;;;;;;;;5047958;28;20048;-39
2022/02/28 10:37:09;;;;;;;6.13;2.63;;;;;;;;;;5060072;28;20503;-39
2022/02/28 10:39:36;;;;;;;14.07;3.83;;;;;;;;;;5071480;28;20033;-39
2022/02/28 10:42:11;;;;;;;6.15;2.85;;;;;;;;;;5071152;28;20099;-39
2022/02/28 10:44:37;;;;;;;5.50;3.53;;;;;;;;;;5070960;28;20035;-39
2022/02/28 10:47:04;;;;;;;9.65;2.90;;;;;;;;;;5071436;28;20025;-39
2022/02/28 10:49:30;;;;;;;7.30;2.83;;;;;;;;;;5071031;28;20033;-39
2022/02/28 10:51:59;;;;;;;5.13;3.03;;;;;;;;;;5071020;28;20028;-39
2022/02/28 10:54:26;;;;;;;7.88;2.97;;;;;;;;;;5071370;28;20033;-39
2022/02/28 10:56:54;;;;;;;5.03;2.55;;;;;;;;;;5070920;28;20529;-41
2022/02/28 10:59:20;;;;;;;5.85;2.33;;;;;;;;;;5070987;28;20036;-39
2022/02/28 11:01:46;;;;;;;11.73;3.10;;;;;;;;;;5070860;28;20082;-39
2022/02/28 11:04:12;;;;;;;5.40;2.78;;;;;;;;;;5071196;28;20064;-39
2022/02/28 11:06:38;;;;;;;5.72;3.55;;;;;;;;;;5071039;28;20039;-39
2022/02/28 11:09:04;;;;;;;7.25;3.20;;;;;;;;;;5072821;28;20043;-39
2022/02/28 11:11:30;;;;;;;7.53;3.75;;;;;;;;;;5074644;28;20060;-39
2022/02/28 11:13:56;;;;;;;6.25;3.22;;;;;;;;;;5074920;28;20033;-39
2022/02/28 11:16:21;;;;;;;5.70;2.17;;;;;;;;;;5074711;28;20466;-39
2022/02/28 11:18:47;;;;;;;6.40;2.72;;;;;;;;;;5074661;28;20029;-39
2022/02/28 11:21:14;;;;;;;5.65;2.72;;;;;;;;;;5074921;28;20021;-39
2022/02/28 11:23:46;;;;;;;4.00;2.80;;;;;;;;;;5074510;28;20116;-39
2022/02/28 11:26:12;;;;;;;4.07;2.77;;;;;;;;;;5074542;28;20371;-39
2022/02/28 11:28:37;;;;;;;5.88;3.08;;;;;;;;;;5074414;28;20275;-40
2022/02/28 11:31:04;;;;;;;5.28;3.30;;;;;;;;;;5074338;28;20033;-39
2022/02/28 11:33:30;;;;;;;7.00;3.65;;;;;;;;;;5074230;28;20120;-39
2022/02/28 11:35:56;;;;;;;7.38;3.72;;;;;;;;;;5074212;28;20067;-39
2022/02/28 11:38:28;;;;;;;4.72;2.55;;;;;;;;;;5074332;28;20055;-39
2022/02/28 11:41:03;;;;;;;5.97;2.60;;;;;;;;;;5074366;28;20033;-39
2022/02/28 11:43:30;;;;;;;6.85;3.80;;;;;;;;;;5074212;28;20034;-39
2022/02/28 11:45:55;;;;;;;3.70;2.28;;;;;;;;;;5074097;28;20016;-39
2022/02/28 11:48:24;;;;;;;7.50;3.72;;;;;;;;;;5074296;28;20082;-39
2022/02/28 11:50:54;;;;;;;9.63;3.88;;;;;;;;;;5073934;28;20035;-39
2022/02/28 11:53:35;;;;;;;6.18;2.75;;;;;;;;;;5074027;28;20082;-39
2022/02/28 11:56:20;;;;;;;9.20;3.58;;;;;;;;;;5073912;28;20036;-39
2022/02/28 11:58:58;;;;;;;10.45;3.80;;;;;;;;;;5063040;28;20552;-39
2022/02/28 12:01:39;;;;;;;4.22;2.13;;;;;;;;;;5073820;28;20111;-39
2022/02/28 12:04:08;;;;;;;4.78;2.40;;;;;;;;;;5074141;28;20074;-39
2022/02/28 12:06:52;;;;;;;7.72;3.10;;;;;;;;;;5074025;28;20033;-39
2022/02/28 12:09:33;;;;;;;8.07;3.15;;;;;;;;;;5073681;28;20060;-39
2022/02/28 12:12:17;;;;;;;7.97;2.55;;;;;;;;;;5073941;28;20460;-39
2022/02/28 12:14:55;;;;;;;7.03;3.83;;;;;;;;;;5073809;28;20042;-39
2022/02/28 12:17:42;;;;;;;8.68;3.33;;;;;;;;;;5073777;28;20562;-39
2022/02/28 12:20:17;;;;;;;10.07;3.67;;;;;;;;;;5063014;28;20041;-39
2022/02/28 12:22:51;;;;;;;4.63;3.25;;;;;;;;;;5073585;28;20124;-39
2022/02/28 12:25:29;;;;;;;7.20;3.20;;;;;;;;;;5073372;28;20402;-39
2022/02/28 12:27:55;;;;;;;10.07;3.22;;;;;;;;;;5073317;28;20024;-39
2022/02/28 12:30:40;;;;;;;8.88;3.70;;;;;;;;;;5073544;28;20036;-39
2022/02/28 12:33:05;;;;;;;7.60;2.95;;;;;;;;;;5073208;28;20124;-39
2022/02/28 12:35:49;;;;;;;6.43;2.97;;;;;;;;;;5073281;28;20426;-39
2022/02/28 12:38:15;;;;;;;8.95;3.90;;;;;;;;;;5073359;28;20052;-39
2022/02/28 12:41:00;;;;;;;4.30;2.53;;;;;;;;;;5073092;28;20568;-39
2022/02/28 12:43:26;;;;;;;5.13;3.20;;;;;;;;;;5073149;28;20063;-39
2022/02/28 12:45:54;;;;;;;3.90;2.70;;;;;;;;;;5072954;28;20032;-39
2022/02/28 12:48:20;;;;;;;7.90;3.70;;;;;;;;;;5073336;28;20345;-39
2022/02/28 12:50:49;;;;;;;5.32;3.15;;;;;;;;;;5072735;28;20074;-39
2022/02/28 12:53:15;;;;;;;7.57;3.63;;;;;;;;;;5072834;28;20522;-39
2022/02/28 12:55:55;;;;;;;10.00;3.67;;;;;;;;;;5073062;28;20028;-39
2022/02/28 12:58:25;;;;;;;7.28;3.50;;;;;;;;;;5072715;28;20063;-39
2022/02/28 13:00:51;;;;;;;6.10;2.95;;;;;;;;;;5072657;28;20067;-39
2022/02/28 13:03:17;;;;;;;7.15;2.83;;;;;;;;;;5072716;28;20020;-39
2022/02/28 13:05:55;;;;;;;5.63;2.95;;;;;;;;;;5072465;28;20479;-39
2022/02/28 13:08:21;;;;;;;7.63;3.20;;;;;;;;;;5072923;28;20047;-39
2022/02/28 13:10:47;;;;;;;8.00;3.47;;;;;;;;;;5072403;28;20033;-39
2022/02/28 13:13:22;;;;;;;5.20;3.10;;;;;;;;;;5072704;28;20028;-39
2022/02/28 13:15:59;;;;;;;5.63;2.95;;;;;;;;;;5072199;28;20040;-39
2022/02/28 13:18:28;;;;;;;13.07;4.38;;;;;;;;;;5072725;28;20418;-39
2022/02/28 13:20:53;;;;;;;7.00;3.35;;;;;;;;;;5072387;28;20374;-39
2022/02/28 13:23:21;;;;;;;9.38;3.45;;;;;;;;;;5072363;28;20024;-39
2022/02/28 13:25:49;;;;;;;6.63;3.40;;;;;;;;;;5072369;28;20032;-39
2022/02/28 13:28:15;;;;;;;5.32;2.97;;;;;;;;;;5072239;28;20060;-40
2022/02/28 13:30:40;;;;;;;7.50;3.65;;;;;;;;;;5071618;28;20063;-39
2022/02/28 13:33:06;;;;;;;7.25;3.13;;;;;;;;;;5071771;28;20090;-39
2022/02/28 13:35:31;;;;;;;5.80;2.88;;;;;;;;;;5071988;28;20044;-39
2022/02/28 13:37:59;;;;;;;7.40;3.55;;;;;;;;;;5071935;28;20079;-40
2022/02/28 13:40:25;;;;;;;8.95;4.75;;;;;;;;;;5071993;28;20446;-39
2022/02/28 13:42:54;;;;;;;7.45;3.10;;;;;;;;;;5072148;28;20021;-39
2022/02/28 13:45:22;;;;;;;7.22;3.65;;;;;;;;;;5072148;28;20413;-39
2022/02/28 13:47:49;;;;;;;6.05;3.50;;;;;;;;;;5071769;28;20060;-39
2022/02/28 13:50:15;;;;;;;4.45;2.83;;;;;;;;;;5071712;28;20524;-39
2022/02/28 13:52:41;;;;;;;7.95;3.08;;;;;;;;;;5071869;28;20067;-39
2022/02/28 13:55:09;;;;;;;8.23;3.70;;;;;;;;;;5070419;28;20024;-39
2022/02/28 13:57:35;;;;;;;9.27;3.05;;;;;;;;;;5071899;28;20364;-39
2022/02/28 14:00:12;;;;;;;5.50;2.88;;;;;;;;;;5071755;28;20447;-39
2022/02/28 14:02:53;;;;;;;10.43;3.95;;;;;;;;;;5071795;28;20043;-39
2022/02/28 14:05:19;;;;;;;8.38;3.28;;;;;;;;;;5071557;28;20043;-39
2022/02/28 14:08:06;;;;;;;5.80;3.85;;;;;;;;;;5071380;28;20115;-39
2022/02/28 14:10:33;;;;;;;6.82;2.80;;;;;;;;;;5071233;28;20076;-39
2022/02/28 14:13:11;;;;;;;10.82;3.25;;;;;;;;;;5071437;28;20024;-39
2022/02/28 14:15:37;;;;;;;3.78;2.78;;;;;;;;;;5071528;28;20028;-39
2022/02/28 14:18:02;;;;;;;8.63;3.72;;;;;;;;;;5071287;28;20158;-39
2022/02/28 14:20:28;;;;;;;5.32;3.78;;;;;;;;;;5071646;28;20158;-39
2022/02/28 14:23:13;;;;;;;4.22;3.15;;;;;;;;;;5071684;28;20426;-39
2022/02/28 14:26:17;;;;;;;4.75;2.40;;;;;;;;;;5009162;28;20066;-39
2022/02/28 14:29:06;;;;;;;5.65;2.40;;;;;;;;;;5009483;28;20048;-39
2022/02/28 14:31:57;;;;;;;7.72;3.45;;;;;;;;;;5054899;28;20425;-39
2022/02/28 14:34:24;;;;;;;5.57;2.88;;;;;;;;;;5071324;28;20043;-39
2022/02/28 14:36:49;;;;;;;5.78;3.22;;;;;;;;;;5071191;28;20028;-39
2022/02/28 14:39:16;;;;;;;7.10;3.17;;;;;;;;;;5071108;28;20029;-39
2022/02/28 14:41:43;;;;;;;5.57;3.08;;;;;;;;;;5071126;28;20013;-39
2022/02/28 14:44:09;;;;;;;10.20;3.00;;;;;;;;;;5075463;28;20032;-39
2022/02/28 14:46:36;;;;;;;5.07;2.95;;;;;;;;;;5075258;28;20070;-39
2022/02/28 14:49:02;;;;;;;6.72;3.40;;;;;;;;;;5075513;28;20044;-39
2022/02/28 14:51:31;;;;;;;10.43;3.88;;;;;;;;;;5075143;28;20082;-39